createdAt,value
2019-04-20T00:01:07.462Z,56.00
2019-04-20T00:04:20.494Z,56.10
2019-04-20T00:07:18.710Z,55.90
2019-04-20T00:10:24.234Z,56.00
2019-04-20T00:13:38.402Z,56.00
2019-04-20T00:16:33.784Z,56.10
2019-04-20T00:19:42.496Z,56.30
2019-04-20T00:22:50.434Z,56.30
2019-04-20T00:26:15.867Z,56.30
2019-04-20T00:29:32.196Z,56.90
2019-04-20T00:32:29.594Z,57.00
2019-04-20T00:35:21.047Z,57.20
2019-04-20T00:38:27.992Z,57.30
2019-04-20T00:41:29.788Z,57.60
2019-04-20T00:44:37.620Z,58.10
2019-04-20T00:47:48.944Z,58.40
2019-04-20T00:50:59.274Z,58.80
2019-04-20T00:53:52.381Z,59.40
2019-04-20T00:57:05.753Z,59.80
2019-04-20T01:00:19.811Z,59.80
2019-04-20T01:03:20.924Z,59.80
2019-04-20T01:06:43.825Z,59.40
2019-04-20T01:09:49.965Z,59.40
2019-04-20T01:13:02.376Z,59.20
2019-04-20T01:16:06.231Z,59.20
2019-04-20T01:19:03.927Z,59.20
2019-04-20T01:22:15.805Z,59.00
2019-04-20T01:25:23.072Z,59.20
2019-04-20T01:28:32.952Z,59.40
2019-04-20T01:31:33.613Z,59.10
2019-04-20T01:34:42.667Z,59.40
2019-04-20T01:37:54.391Z,59.60
2019-04-20T01:40:40.232Z,59.80
2019-04-20T01:43:43.908Z,60.00
2019-04-20T01:46:53.520Z,59.90
2019-04-20T01:49:58.573Z,60.20
2019-04-20T01:53:10.207Z,60.30
2019-04-20T01:56:18.347Z,60.40
2019-04-20T01:59:25.317Z,60.30
2019-04-20T02:02:29.551Z,60.30
2019-04-20T02:05:35.879Z,60.30
2019-04-20T02:08:40.066Z,60.50
2019-04-20T02:11:47.293Z,60.60
2019-04-20T02:14:55.246Z,60.80
2019-04-20T02:18:08.927Z,61.00
2019-04-20T02:21:15.101Z,61.10
2019-04-20T02:24:07.391Z,61.00
2019-04-20T02:27:10.381Z,60.90
2019-04-20T02:30:52.950Z,61.00
2019-04-20T02:33:57.366Z,61.20
2019-04-20T02:40:12.767Z,61.70
2019-04-20T02:46:17.095Z,61.90
2019-04-20T02:49:29.235Z,61.40
2019-04-20T02:52:45.342Z,61.00
2019-04-20T02:55:31.224Z,61.00
2019-04-20T02:58:45.523Z,60.90
2019-04-20T03:01:30.682Z,61.30
2019-04-20T03:04:29.012Z,61.20
2019-04-20T03:07:36.806Z,61.00
2019-04-20T03:10:52.514Z,60.90
2019-04-20T03:13:54.576Z,61.00
2019-04-20T03:17:08.684Z,60.80
2019-04-20T03:19:57.405Z,61.10
2019-04-20T03:23:27.824Z,61.00
2019-04-20T03:26:22.456Z,60.70
2019-04-20T03:29:34.879Z,60.40
2019-04-20T03:33:04.371Z,60.40
2019-04-20T03:35:58.725Z,60.20
2019-04-20T03:38:55.035Z,60.30
2019-04-20T03:41:44.437Z,60.10
2019-04-20T03:44:54.245Z,60.20
2019-04-20T03:48:03.021Z,60.40
2019-04-20T03:51:26.812Z,60.40
2019-04-20T03:54:25.207Z,60.90
2019-04-20T03:57:34.383Z,60.90
2019-04-20T04:00:43.251Z,61.30
2019-04-20T04:04:06.642Z,61.10
2019-04-20T04:06:49.996Z,61.00
2019-04-20T04:10:06.962Z,61.20
2019-04-20T04:13:12.239Z,61.40
2019-04-20T04:16:19.828Z,61.20
2019-04-20T04:19:27.968Z,60.90
2019-04-20T04:22:43.726Z,60.80
2019-04-20T04:25:47.481Z,61.10
2019-04-20T04:28:53.440Z,61.60
2019-04-20T04:32:06.623Z,60.80
2019-04-20T04:35:01.669Z,61.00
2019-04-20T04:38:06.970Z,60.90
2019-04-20T04:41:36.331Z,61.10
2019-04-20T04:44:18.007Z,60.70
2019-04-20T04:47:10.459Z,60.70
2019-04-20T04:50:18.306Z,60.70
2019-04-20T04:53:30.208Z,60.30
2019-04-20T04:56:26.829Z,60.30
2019-04-20T04:59:29.683Z,60.60
2019-04-20T05:02:38.023Z,61.70
2019-04-20T05:06:00.496Z,60.50
2019-04-20T05:08:55.042Z,60.60
2019-04-20T05:12:02.770Z,60.40
2019-04-20T05:15:10.135Z,60.40
2019-04-20T05:18:35.762Z,60.20
2019-04-20T05:21:30.214Z,60.90
2019-04-20T05:24:42.336Z,60.10
2019-04-20T05:27:50.890Z,60.20
2019-04-20T05:30:45.594Z,61.40
2019-04-20T05:34:10.855Z,59.20
2019-04-20T05:37:16.351Z,59.30
2019-04-20T05:40:16.492Z,59.10
2019-04-20T05:43:24.679Z,61.00
2019-04-20T05:46:32.086Z,56.80
2019-04-20T05:49:40.255Z,50.40
2019-04-20T05:53:01.747Z,46.70
2019-04-20T05:55:43.294Z,44.70
2019-04-20T05:58:53.591Z,43.60
2019-04-20T06:05:05.655Z,41.50
2019-04-20T06:08:05.172Z,40.20
2019-04-20T06:11:16.448Z,38.20
2019-04-20T06:14:13.271Z,39.40
2019-04-20T06:17:32.021Z,39.40
2019-04-20T06:20:46.747Z,38.10
2019-04-20T06:23:54.884Z,38.30
2019-04-20T06:27:00.654Z,36.80
2019-04-20T06:29:55.868Z,35.70
2019-04-20T06:36:52.647Z,37.60
2019-04-20T06:39:55.757Z,38.00
2019-04-20T06:42:59.721Z,38.40
2019-04-20T06:46:10.301Z,38.20
2019-04-20T06:49:18.347Z,39.80
2019-04-20T06:52:25.124Z,38.00
2019-04-20T06:55:34.445Z,37.70
2019-04-20T06:58:43.809Z,38.10
2019-04-20T07:01:41.969Z,38.00
2019-04-20T07:04:54.444Z,37.50
2019-04-20T07:10:57.856Z,39.20
2019-04-20T07:13:46.848Z,36.90
2019-04-20T07:17:09.630Z,36.80
2019-04-20T07:20:13.949Z,38.80
2019-04-20T07:26:31.822Z,38.10
2019-04-20T07:29:36.744Z,34.90
2019-04-20T07:32:42.684Z,35.90
2019-04-20T07:35:40.129Z,35.40
2019-04-20T07:38:49.927Z,35.60
2019-04-20T07:41:54.653Z,36.50
2019-04-20T07:45:01.338Z,35.50
2019-04-20T07:48:06.123Z,35.10
2019-04-20T07:51:00.673Z,35.20
2019-04-20T07:54:16.555Z,34.60
2019-04-20T07:57:18.371Z,34.20
2019-04-20T08:00:26.330Z,34.90
2019-04-20T08:03:33.578Z,34.00
2019-04-20T08:06:26.410Z,35.80
2019-04-20T08:09:34.170Z,33.60
2019-04-20T08:12:55.649Z,34.60
2019-04-20T08:19:01.390Z,33.80
2019-04-20T08:22:12.328Z,33.50
2019-04-20T08:25:06.936Z,34.30
2019-04-20T08:28:01.652Z,33.50
2019-04-20T08:31:35.926Z,33.50
2019-04-20T08:34:49.030Z,34.40
2019-04-20T08:38:14.859Z,34.00
2019-04-20T08:40:59.670Z,34.00
2019-04-20T08:44:18.789Z,34.00
2019-04-20T08:47:35.119Z,34.40
2019-04-20T08:50:20.463Z,34.40
2019-04-20T08:53:27.637Z,34.60
2019-04-20T08:56:18.732Z,35.00
2019-04-20T08:59:13.863Z,34.80
2019-04-20T09:02:18.819Z,34.20
2019-04-20T09:05:34.734Z,34.80
2019-04-20T09:08:42.258Z,34.50
2019-04-20T09:11:57.679Z,35.00
2019-04-20T09:14:40.242Z,36.10
2019-04-20T09:17:54.096Z,36.60
2019-04-20T09:21:01.487Z,37.60
2019-04-20T09:24:22.685Z,38.30
2019-04-20T09:27:18.201Z,39.30
2019-04-20T09:30:25.788Z,40.10
2019-04-20T09:33:41.767Z,40.30
2019-04-20T09:36:53.822Z,40.60
2019-04-20T09:40:21.299Z,40.20
2019-04-20T09:43:13.983Z,41.00
2019-04-20T09:46:16.156Z,41.20
2019-04-20T09:49:34.390Z,42.10
2019-04-20T09:52:38.186Z,41.00
2019-04-20T09:55:46.866Z,42.70
2019-04-20T09:58:55.211Z,43.40
2019-04-20T10:01:45.954Z,41.00
2019-04-20T10:04:45.504Z,39.80
2019-04-20T10:07:55.961Z,41.90
2019-04-20T10:10:54.439Z,42.50
2019-04-20T10:13:59.292Z,40.70
2019-04-20T10:17:02.733Z,41.00
2019-04-20T10:20:12.812Z,41.80
2019-04-20T10:23:12.574Z,42.30
2019-04-20T10:26:16.453Z,42.60
2019-04-20T10:29:20.069Z,42.30
2019-04-20T10:32:31.077Z,43.30
2019-04-20T10:35:29.737Z,42.50
2019-04-20T10:38:35.895Z,42.50
2019-04-20T10:41:46.960Z,41.70
2019-04-20T10:44:45.084Z,42.00
2019-04-20T10:47:48.617Z,41.40
2019-04-20T10:50:52.795Z,41.40
2019-04-20T10:53:56.291Z,40.90
2019-04-20T10:56:59.830Z,41.30
2019-04-20T11:00:05.834Z,42.40
2019-04-20T11:03:10.591Z,41.10
2019-04-20T11:06:14.519Z,41.10
2019-04-20T11:09:18.502Z,40.60
2019-04-20T11:12:22.177Z,38.90
2019-04-20T11:15:26.209Z,40.10
2019-04-20T11:18:29.768Z,37.40
2019-04-20T11:21:34.362Z,37.70
2019-04-20T11:24:38.564Z,36.80
2019-04-20T11:27:43.851Z,36.60
2019-04-20T11:30:48.066Z,38.30
2019-04-20T11:34:15.018Z,37.70
2019-04-20T11:37:17.259Z,38.30
2019-04-20T11:40:21.126Z,38.70
2019-04-20T11:43:25.988Z,39.70
2019-04-20T11:46:30.494Z,40.20
2019-04-20T11:49:35.373Z,40.90
2019-04-20T11:52:43.845Z,40.30
2019-04-20T11:55:44.585Z,40.40
2019-04-20T11:58:49.091Z,40.60
2019-04-20T12:02:05.800Z,40.20
2019-04-20T12:05:21.096Z,40.90
2019-04-20T12:08:16.650Z,41.50
2019-04-20T12:11:30.382Z,40.50
2019-04-20T12:14:25.341Z,42.60
2019-04-20T12:17:29.347Z,41.80
2019-04-20T12:20:32.987Z,41.70
2019-04-20T12:23:36.467Z,42.30
2019-04-20T12:26:40.592Z,41.10
2019-04-20T12:29:44.144Z,41.40
2019-04-20T12:32:52.659Z,41.50
2019-04-20T12:35:54.225Z,41.70
2019-04-20T12:38:59.087Z,42.30
2019-04-20T12:42:07.269Z,43.00
2019-04-20T12:45:11.359Z,43.00
2019-04-20T12:48:15.626Z,42.20
2019-04-20T12:51:19.682Z,42.10
2019-04-20T12:54:23.251Z,42.20
2019-04-20T12:57:26.873Z,43.00
2019-04-20T13:00:45.907Z,42.40
2019-04-20T13:03:49.876Z,41.70
2019-04-20T13:06:55.206Z,41.70
2019-04-20T13:10:01.904Z,42.30
2019-04-20T13:13:05.827Z,43.60
2019-04-20T13:16:12.250Z,42.60
2019-04-20T13:19:17.190Z,41.60
2019-04-20T13:22:21.121Z,41.90
2019-04-20T13:25:25.088Z,41.70
2019-04-20T13:28:30.713Z,41.50
2019-04-20T13:31:34.597Z,42.30
2019-04-20T13:34:40.311Z,43.90
2019-04-20T13:37:45.129Z,44.30
2019-04-20T13:40:49.260Z,44.40
2019-04-20T13:43:54.843Z,45.10
2019-04-20T13:46:58.821Z,44.20
2019-04-20T13:50:03.294Z,45.30
2019-04-20T13:53:07.401Z,45.20
2019-04-20T13:56:11.823Z,45.70
2019-04-20T13:59:30.018Z,44.90
2019-04-20T14:02:44.748Z,45.40
2019-04-20T14:05:48.799Z,45.00
2019-04-20T14:08:53.649Z,45.20
2019-04-20T14:12:10.311Z,45.50
2019-04-20T14:15:02.913Z,45.10
2019-04-20T14:18:06.976Z,45.80
2019-04-20T14:21:11.930Z,46.00
2019-04-20T14:24:16.992Z,45.70
2019-04-20T14:27:21.309Z,45.70
2019-04-20T14:30:24.915Z,45.50
2019-04-20T14:33:28.604Z,45.40
2019-04-20T14:36:32.901Z,45.40
2019-04-20T14:39:36.479Z,46.00
2019-04-20T14:42:46.438Z,46.30
2019-04-20T14:45:45.136Z,46.90
2019-04-20T14:48:49.039Z,46.80
2019-04-20T14:51:54.624Z,46.60
2019-04-20T14:54:57.737Z,46.00
2019-04-20T14:58:03.697Z,46.00
2019-04-20T15:01:09.342Z,47.00
2019-04-20T15:04:16.785Z,46.60
2019-04-20T15:07:18.413Z,46.70
2019-04-20T15:10:22.702Z,47.00
2019-04-20T15:13:26.764Z,47.10
2019-04-20T15:16:30.724Z,47.50
2019-04-20T15:19:35.985Z,47.20
2019-04-20T15:22:43.761Z,47.40
2019-04-20T15:25:48.545Z,47.80
2019-04-20T15:28:52.541Z,47.50
2019-04-20T15:31:56.505Z,48.00
2019-04-20T15:35:00.696Z,47.80
2019-04-20T15:38:05.124Z,47.90
2019-04-20T15:41:12.117Z,47.40
2019-04-20T15:44:15.264Z,48.10
2019-04-20T15:47:20.073Z,47.70
2019-04-20T15:50:23.765Z,47.60
2019-04-20T15:53:27.186Z,48.00
2019-04-20T15:56:30.654Z,48.60
2019-04-20T15:59:34.728Z,48.60
2019-04-20T16:02:41.232Z,49.00
2019-04-20T16:05:49.406Z,47.80
2019-04-20T16:08:54.573Z,48.40
2019-04-20T16:11:59.123Z,49.30
2019-04-20T16:15:03.935Z,49.80
2019-04-20T16:18:07.527Z,49.00
2019-04-20T16:21:17.839Z,48.60
2019-04-20T16:24:16.923Z,48.30
2019-04-20T16:27:31.764Z,48.40
2019-04-20T16:30:35.884Z,48.60
2019-04-20T16:33:39.437Z,48.90
2019-04-20T16:36:44.358Z,49.10
2019-04-20T16:39:48.350Z,49.20
2019-04-20T16:42:52.155Z,49.20
2019-04-20T16:45:55.654Z,49.20
2019-04-20T16:48:59.111Z,50.00
2019-04-20T16:52:03.016Z,49.90
2019-04-20T16:55:08.107Z,50.20
2019-04-20T16:58:13.377Z,50.50
2019-04-20T17:01:17.242Z,50.30
2019-04-20T17:04:22.991Z,50.80
2019-04-20T17:07:31.200Z,50.60
2019-04-20T17:10:34.911Z,50.60
2019-04-20T17:13:44.175Z,50.50
2019-04-20T17:16:43.856Z,51.00
2019-04-20T17:19:47.481Z,51.00
2019-04-20T17:22:50.939Z,51.40
2019-04-20T17:25:55.673Z,51.10
2019-04-20T17:29:18.093Z,50.80
2019-04-20T17:32:23.410Z,50.60
2019-04-20T17:35:37.974Z,50.90
2019-04-20T17:38:38.602Z,50.20
2019-04-20T17:41:56.323Z,50.60
2019-04-20T17:44:53.050Z,50.70
2019-04-20T17:48:07.250Z,50.90
2019-04-20T17:51:13.931Z,51.00
2019-04-20T17:54:17.589Z,51.70
2019-04-20T17:57:21.554Z,51.30
2019-04-20T18:00:29.933Z,51.40
2019-04-20T18:06:56.732Z,52.00
2019-04-20T18:10:09.793Z,52.20
2019-04-20T18:12:56.557Z,52.40
2019-04-20T18:16:22.221Z,52.70
2019-04-20T18:19:13.272Z,53.30
2019-04-20T18:22:13.846Z,53.60
2019-04-20T18:25:41.700Z,54.00
2019-04-20T18:28:39.998Z,54.40
2019-04-20T18:31:39.579Z,54.60
2019-04-20T18:34:53.024Z,55.00
2019-04-20T18:38:00.813Z,55.30
2019-04-20T18:41:05.781Z,55.20
2019-04-20T18:44:04.524Z,55.80
2019-04-20T18:47:31.795Z,55.60
2019-04-20T18:50:22.939Z,55.70
2019-04-20T18:53:28.737Z,55.70
2019-04-20T18:56:31.051Z,56.10
2019-04-20T18:59:39.959Z,56.10
2019-04-20T19:02:40.956Z,56.20
2019-04-20T19:05:42.134Z,56.50
2019-04-20T19:08:49.979Z,56.60
2019-04-20T19:12:00.018Z,56.60
2019-04-20T19:15:19.724Z,56.90
2019-04-20T19:18:23.809Z,56.30
2019-04-20T19:21:15.215Z,56.30
2019-04-20T19:24:21.811Z,56.10
2019-04-20T19:27:33.646Z,55.80
2019-04-20T19:30:39.857Z,55.80
2019-04-20T19:33:57.446Z,55.60
2019-04-20T19:36:53.401Z,55.70
2019-04-20T19:40:00.984Z,55.50
2019-04-20T19:43:02.418Z,55.30
2019-04-20T19:46:35.404Z,55.30
2019-04-20T19:49:14.247Z,55.00
2019-04-20T19:52:43.337Z,55.00
2019-04-20T19:55:27.375Z,54.90
2019-04-20T19:58:28.067Z,54.90
2019-04-20T20:01:22.055Z,55.10
2019-04-20T20:04:25.909Z,54.70
2019-04-20T20:07:37.525Z,54.70
2019-04-20T20:10:38.036Z,55.40
2019-04-20T20:13:44.679Z,54.90
2019-04-20T20:17:04.946Z,55.10
2019-04-20T20:20:14.634Z,55.30
2019-04-20T20:22:58.254Z,55.40
2019-04-20T20:26:02.306Z,55.70
2019-04-20T20:29:17.022Z,56.10
2019-04-20T20:32:21.379Z,56.10
2019-04-20T20:35:23.550Z,56.20
2019-04-20T20:38:28.098Z,56.30
2019-04-20T20:41:31.695Z,56.70
2019-04-20T20:44:44.085Z,56.60
2019-04-20T20:47:53.741Z,57.00
2019-04-20T20:50:58.548Z,57.10
2019-04-20T20:53:59.015Z,57.60
2019-04-20T20:57:01.451Z,57.20
2019-04-20T21:00:03.560Z,57.70
2019-04-20T21:03:06.026Z,57.70
2019-04-20T21:06:09.571Z,57.40
2019-04-20T21:09:14.448Z,57.60
2019-04-20T21:12:19.912Z,57.30
2019-04-20T21:15:26.067Z,57.70
2019-04-20T21:18:49.049Z,57.90
2019-04-20T21:21:44.316Z,57.80
2019-04-20T21:24:46.728Z,57.60
2019-04-20T21:27:48.709Z,57.50
2019-04-20T21:30:53.552Z,57.20
2019-04-20T21:34:02.827Z,57.20
2019-04-20T21:37:11.591Z,56.70
2019-04-20T21:40:21.346Z,57.00
2019-04-20T21:43:14.589Z,57.30
2019-04-20T21:46:18.958Z,57.40
2019-04-20T21:49:37.617Z,57.80
2019-04-20T21:52:36.370Z,58.70
2019-04-20T21:55:34.114Z,59.20
2019-04-20T21:58:43.543Z,60.00
2019-04-20T22:01:56.368Z,60.60
2019-04-20T22:04:49.278Z,61.70
2019-04-20T22:07:57.695Z,61.80
2019-04-20T22:10:58.087Z,62.70
2019-04-20T22:14:09.232Z,62.90
2019-04-20T22:17:07.849Z,64.00
2019-04-20T22:20:20.122Z,64.30
2019-04-20T22:23:36.394Z,64.30
2019-04-20T22:26:30.990Z,61.40
2019-04-20T22:29:28.063Z,63.50
2019-04-20T22:32:32.260Z,61.10
2019-04-20T22:35:42.660Z,59.90
2019-04-20T22:39:01.296Z,59.00
2019-04-20T22:42:08.987Z,58.30
2019-04-20T22:45:13.694Z,58.50
2019-04-20T22:48:17.657Z,58.10
2019-04-20T22:51:34.283Z,58.60
2019-04-20T22:54:40.419Z,59.50
2019-04-20T22:57:47.501Z,60.10
2019-04-20T23:00:43.188Z,59.50
2019-04-20T23:03:41.162Z,60.30
2019-04-20T23:06:48.546Z,59.90
2019-04-20T23:09:53.991Z,61.10
2019-04-20T23:12:59.194Z,59.60
2019-04-20T23:16:02.271Z,59.00
2019-04-20T23:19:05.793Z,59.50
2019-04-20T23:22:13.515Z,60.30
2019-04-20T23:25:15.366Z,59.10
2019-04-20T23:28:20.626Z,58.80
2019-04-20T23:31:26.683Z,58.80
2019-04-20T23:34:32.360Z,59.00
2019-04-20T23:37:36.987Z,58.60
2019-04-20T23:40:39.728Z,58.70
2019-04-20T23:43:45.277Z,58.10
2019-04-20T23:47:01.171Z,58.30
2019-04-20T23:50:17.617Z,58.30
2019-04-20T23:53:24.313Z,58.20
2019-04-20T23:56:17.502Z,58.80
2019-04-20T23:59:25.217Z,58.50
